Ansonia, Pennsylvania
Current Conditions -  °F | °C
As of 7:35 PM on Saturday 25 Oct 2014 (Local Time) from KN38 Reporting Station
Broken Clouds Broken Clouds  
Wind Chill: 57°   Ceiling: 4900
Heat Index: 57°   Visibility: 10mi
Dew Point: 48°   Wind: 7mph
Humidity: 72%   Direction: 250°WSW
Pressure: 29.67"   Gusts: 15mph
Location:  41.7308°N, 77.349°W
Report Text: KN38 252335Z AUTO 25006G13KT 10SM SCT037 SCT044 BKN049 14/09 A2967 RMK AO2
Loading
Personal Weather Stations






























Interactive Weather Map
Tropical Storm Tracking
New forecast layout! Learn more

10-Day Weather Forecast

Advertisements
Track Severe Weather on mobile